createdAt,value
2018-10-03T00:04:58.934Z,1020
2018-10-03T00:09:59.317Z,1019.9
2018-10-03T00:14:59.973Z,1020
2018-10-03T00:19:59.907Z,1020
2018-10-03T00:24:59.524Z,1020.1
2018-10-03T00:29:59.714Z,1020.2
2018-10-03T00:34:59.381Z,1020.2
2018-10-03T00:40:00.412Z,1020.2
2018-10-03T00:44:59.379Z,1020.2
2018-10-03T00:49:59.660Z,1020.2
2018-10-03T00:54:59.062Z,1020.2
2018-10-03T00:59:59.604Z,1020.2
2018-10-03T01:04:59.072Z,1020.3
2018-10-03T01:09:59.281Z,1020.2
2018-10-03T01:14:58.963Z,1020.3
2018-10-03T01:19:58.904Z,1020.4
2018-10-03T01:24:59.295Z,1020.5
2018-10-03T01:29:59.652Z,1020.6
2018-10-03T01:34:59.111Z,1020.6
2018-10-03T01:40:11.402Z,1020.7
2018-10-03T01:44:59.294Z,1020.8
2018-10-03T01:50:01.421Z,1020.8
2018-10-03T01:55:00.103Z,1020.8
2018-10-03T01:59:59.290Z,1020.8
2018-10-03T02:04:58.874Z,1020.9
2018-10-03T02:10:00.076Z,1021
2018-10-03T02:15:00.559Z,1021.1
2018-10-03T02:20:00.532Z,1021.2
2018-10-03T02:25:07.232Z,1021.3
2018-10-03T02:30:07.655Z,1021.3
2018-10-03T02:35:01.312Z,1021.3
2018-10-03T02:40:04.918Z,1021.4
2018-10-03T02:44:58.616Z,1021.3
2018-10-03T02:49:58.973Z,1021.4
2018-10-03T02:54:58.650Z,1021.3
2018-10-03T02:59:58.716Z,1021.4
2018-10-03T03:04:58.682Z,1021.5
2018-10-03T03:09:58.620Z,1021.5
2018-10-03T03:14:58.737Z,1021.7
2018-10-03T03:19:58.781Z,1021.7
2018-10-03T03:24:59.086Z,1021.6
2018-10-03T03:29:58.685Z,1021.7
2018-10-03T03:34:59.368Z,1021.8
2018-10-03T03:39:58.435Z,1021.9
2018-10-03T03:44:58.877Z,1021.9
2018-10-03T03:49:58.577Z,1022
2018-10-03T03:54:58.423Z,1022.1
2018-10-03T04:00:01.190Z,1022.1
2018-10-03T04:04:58.466Z,1022
2018-10-03T04:09:58.391Z,1022.2
2018-10-03T04:14:58.320Z,1022.2
2018-10-03T04:19:58.760Z,1022.3
2018-10-03T04:24:58.469Z,1022.3
2018-10-03T04:29:58.414Z,1022.3
2018-10-03T04:35:00.292Z,1022.4
2018-10-03T04:39:58.404Z,1022.4
2018-10-03T04:44:58.816Z,1022.5
2018-10-03T04:49:58.483Z,1022.5
2018-10-03T04:54:58.543Z,1022.6
2018-10-03T04:59:58.992Z,1022.5
2018-10-03T05:04:58.965Z,1022.5
2018-10-03T05:09:58.675Z,1022.5
2018-10-03T05:14:58.462Z,1022.6
2018-10-03T05:19:58.856Z,1022.6
2018-10-03T05:24:58.812Z,1022.8
2018-10-03T05:29:59.474Z,1022.9
2018-10-03T05:34:58.243Z,1022.9
2018-10-03T05:39:58.359Z,1023
2018-10-03T05:44:58.595Z,1023.1
2018-10-03T05:49:58.264Z,1023.1
2018-10-03T05:54:58.691Z,1023.2
2018-10-03T05:59:59.164Z,1023.2
2018-10-03T06:04:58.516Z,1023.3
2018-10-03T06:10:05.792Z,1023.4
2018-10-03T06:14:58.402Z,1023.4
2018-10-03T06:19:58.320Z,1023.5
2018-10-03T06:24:58.652Z,1023.5
2018-10-03T06:29:58.195Z,1023.5
2018-10-03T06:34:58.311Z,1023.6
2018-10-03T06:39:58.438Z,1023.7
2018-10-03T06:44:58.811Z,1023.8
2018-10-03T06:49:58.605Z,1023.9
2018-10-03T06:54:58.654Z,1024
2018-10-03T06:59:58.624Z,1024.1
2018-10-03T07:04:58.354Z,1024.3
2018-10-03T07:09:58.348Z,1024.4
2018-10-03T07:14:58.298Z,1024.6
2018-10-03T07:19:58.947Z,1024.7
2018-10-03T07:24:58.159Z,1024.7
2018-10-03T07:29:58.716Z,1024.7
2018-10-03T07:34:58.325Z,1024.8
2018-10-03T07:39:58.511Z,1024.9
2018-10-03T07:44:58.291Z,1024.9
2018-10-03T07:49:58.226Z,1025
2018-10-03T07:54:58.213Z,1025.1
2018-10-03T07:59:58.461Z,1025.3
2018-10-03T08:04:58.195Z,1025.3
2018-10-03T08:09:58.161Z,1025.4
2018-10-03T08:14:58.078Z,1025.4
2018-10-03T08:19:58.546Z,1025.4
2018-10-03T08:24:58.092Z,1025.5
2018-10-03T08:29:58.070Z,1025.5
2018-10-03T08:34:57.968Z,1025.5
2018-10-03T08:39:58.749Z,1025.5
2018-10-03T08:44:58.157Z,1025.7
2018-10-03T08:50:01.185Z,1025.8
2018-10-03T09:44:58.211Z,1026.2
2018-10-03T09:49:58.552Z,1026.3
2018-10-03T09:54:58.416Z,1026.5
2018-10-03T09:59:58.402Z,1026.6
2018-10-03T10:04:57.743Z,1026.7
2018-10-03T10:09:57.806Z,1026.7
2018-10-03T10:14:57.823Z,1026.8
2018-10-03T10:20:15.972Z,1026.6
2018-10-03T10:35:07.643Z,1026.8
2018-10-03T10:40:02.822Z,1026.8
2018-10-03T10:45:03.072Z,1026.8
2018-10-03T10:50:03.032Z,1026.8
2018-10-03T10:55:02.565Z,1026.9
2018-10-03T11:00:03.102Z,1027
2018-10-03T11:05:02.914Z,1026.9
2018-10-03T11:10:02.734Z,1027
2018-10-03T11:15:02.603Z,1027
2018-10-03T11:20:02.626Z,1027
2018-10-03T11:25:02.563Z,1027
2018-10-03T11:30:02.534Z,1027
2018-10-03T11:35:02.831Z,1027.1
2018-10-03T11:40:02.710Z,1027.1
2018-10-03T11:45:02.549Z,1027.1
2018-10-03T11:50:24.548Z,1027
2018-10-03T11:55:04.718Z,1027
2018-10-03T12:00:10.279Z,1027.1
2018-10-03T12:05:03.207Z,1027.2
2018-10-03T12:10:04.229Z,1027.3
2018-10-03T12:15:03.614Z,1027.2
2018-10-03T12:20:02.937Z,1027.2
2018-10-03T12:25:02.613Z,1027.1
2018-10-03T12:30:02.642Z,1027.2
2018-10-03T12:35:02.739Z,1027.2
2018-10-03T12:40:02.925Z,1027.2
2018-10-03T12:45:25.034Z,1027.2
2018-10-03T12:50:03.151Z,1027.2
2018-10-03T12:55:02.899Z,1027.1
2018-10-03T13:00:03.570Z,1027.1
2018-10-03T13:05:06.264Z,1027.2
2018-10-03T13:10:06.583Z,1027.3
2018-10-03T13:15:02.851Z,1027.2
2018-10-03T13:20:02.900Z,1027.2
2018-10-03T13:25:02.674Z,1027.2
2018-10-03T13:30:02.959Z,1027.2
2018-10-03T13:35:19.299Z,1027.1
2018-10-03T13:40:02.469Z,1027.1
2018-10-03T13:45:07.310Z,1026.9
2018-10-03T13:50:17.083Z,1026.9
2018-10-03T13:55:04.008Z,1027
2018-10-03T14:04:55.678Z,1027
2018-10-03T14:06:29.943Z,1026.9
2018-10-03T14:10:02.776Z,1026.9
2018-10-03T15:20:00.680Z,1026.8
2018-10-03T15:25:00.552Z,1027
2018-10-03T15:30:00.682Z,1027
2018-10-03T15:35:00.444Z,1027
2018-10-03T15:40:01.583Z,1026.9
2018-10-03T15:46:36.562Z,1026.9
2018-10-03T15:50:01.270Z,1026.9
2018-10-03T15:55:01.418Z,1026.9
2018-10-03T16:00:00.740Z,1027
2018-10-03T16:07:04.601Z,1027
2018-10-03T16:10:00.240Z,1027
2018-10-03T16:15:13.369Z,1027.1
2018-10-03T16:20:12.579Z,1027.2
2018-10-03T16:25:09.485Z,1027.2
2018-10-03T16:30:00.477Z,1027.3
2018-10-03T16:35:00.263Z,1027.3
2018-10-03T16:40:00.195Z,1027.4
2018-10-03T16:45:00.340Z,1027.4
2018-10-03T16:50:00.112Z,1027.4
2018-10-03T16:55:00.402Z,1027.5
2018-10-03T17:00:00.253Z,1027.5
2018-10-03T17:05:00.397Z,1027.6
2018-10-03T17:10:00.185Z,1027.6
2018-10-03T17:15:00.324Z,1027.6
2018-10-03T17:20:00.218Z,1027.6
2018-10-03T17:25:00.201Z,1027.6
2018-10-03T17:30:00.368Z,1027.6
2018-10-03T17:35:00.249Z,1027.6
2018-10-03T17:40:00.080Z,1027.6
2018-10-03T17:45:00.038Z,1027.6
2018-10-03T17:50:00.333Z,1027.6
2018-10-03T17:55:00.207Z,1027.6
2018-10-03T18:00:00.049Z,1027.6
2018-10-03T18:05:00.353Z,1027.6
2018-10-03T18:10:00.033Z,1027.7
2018-10-03T18:15:00.291Z,1027.8
2018-10-03T18:20:00.229Z,1027.8
2018-10-03T18:25:00.240Z,1027.8
2018-10-03T18:30:00.059Z,1027.8
2018-10-03T18:35:00.098Z,1027.8
2018-10-03T18:40:00.248Z,1027.8
2018-10-03T18:45:00.132Z,1027.8
2018-10-03T18:50:00.135Z,1027.8
2018-10-03T18:55:00.022Z,1027.8
2018-10-03T19:00:00.196Z,1027.8
2018-10-03T19:05:00.137Z,1027.7
2018-10-03T19:09:59.965Z,1027.7
2018-10-03T19:15:00.143Z,1027.7
2018-10-03T19:20:00.065Z,1027.7
2018-10-03T19:24:59.962Z,1027.7
2018-10-03T19:30:00.222Z,1027.7
2018-10-03T19:35:00.278Z,1027.7
2018-10-03T19:40:00.059Z,1027.7
2018-10-03T19:45:00.096Z,1027.7
2018-10-03T19:50:00.530Z,1027.7
2018-10-03T19:55:00.133Z,1027.7
2018-10-03T19:59:59.803Z,1027.7
2018-10-03T20:05:01.428Z,1027.7
2018-10-03T20:09:59.915Z,1027.7
2018-10-03T20:15:00.095Z,1027.7
2018-10-03T20:20:00.031Z,1027.8
2018-10-03T20:25:00.295Z,1027.8
2018-10-03T20:30:00.238Z,1027.8
2018-10-03T20:35:00.043Z,1027.8
2018-10-03T20:39:59.898Z,1027.7
2018-10-03T20:45:25.293Z,1027.7
2018-10-03T20:50:00.870Z,1027.6
2018-10-03T20:55:01.315Z,1027.7
2018-10-03T21:00:01.282Z,1027.7
2018-10-03T21:05:02.111Z,1027.7
2018-10-03T21:10:05.106Z,1027.6
2018-10-03T21:14:59.838Z,1027.6
2018-10-03T21:20:00.060Z,1027.6
2018-10-03T21:24:59.701Z,1027.6
2018-10-03T21:30:01.089Z,1027.6
2018-10-03T21:35:00.036Z,1027.5
2018-10-03T21:39:59.874Z,1027.6
2018-10-03T21:44:59.754Z,1027.6
2018-10-03T21:49:59.680Z,1027.6
2018-10-03T21:54:59.718Z,1027.6
2018-10-03T21:59:59.772Z,1027.6
2018-10-03T22:04:59.854Z,1027.6
2018-10-03T22:10:00.131Z,1027.5
2018-10-03T22:14:59.825Z,1027.5
2018-10-03T22:19:59.916Z,1027.5
2018-10-03T22:24:59.894Z,1027.5
2018-10-03T22:30:00.158Z,1027.5
2018-10-03T22:35:00.214Z,1027.5
2018-10-03T22:39:59.640Z,1027.5
2018-10-03T22:44:59.607Z,1027.5
2018-10-03T22:49:59.763Z,1027.4
2018-10-03T22:54:59.819Z,1027.4
2018-10-03T22:59:59.976Z,1027.4
2018-10-03T23:04:59.914Z,1027.3
2018-10-03T23:09:59.700Z,1027.3
2018-10-03T23:14:59.826Z,1027.4
2018-10-03T23:19:59.783Z,1027.4
2018-10-03T23:24:59.743Z,1027.3
2018-10-03T23:29:59.971Z,1027.4
2018-10-03T23:34:59.928Z,1027.4
2018-10-03T23:39:59.541Z,1027.3
2018-10-03T23:44:59.730Z,1027.3
2018-10-03T23:49:59.709Z,1027.3
2018-10-03T23:54:59.639Z,1027.3
2018-10-03T23:59:59.887Z,1027.2
